Time;durP1;ratioP1;P1;durP2;ratioP2;P2;SDS_P1;SDS_P2;PMS_P1;PMS_P2;Temp;Humidity;BMP_temperature;BMP_pressure;BME280_temperature;BME280_humidity;BME280_pressure;Samples;Min_cycle;Max_cycle;Signal;HPM_P1;HPM_P2
2021/09/15 00:01:30;;;;;;;14.20;10.57;;;;;;;13.20;100.00;100767.22;5043980;28;20214;-72
2021/09/15 00:03:58;;;;;;;16.30;12.10;;;;;;;13.16;100.00;100770.00;5057392;28;20659;-73
2021/09/15 00:06:24;;;;;;;12.93;10.93;;;;;;;13.13;100.00;100770.09;5043699;28;20324;-73
2021/09/15 00:08:51;;;;;;;15.07;11.70;;;;;;;13.12;100.00;100768.38;5027698;28;20210;-72
2021/09/15 00:11:19;;;;;;;16.53;12.40;;;;;;;13.07;100.00;100758.09;5040821;28;20226;-73
2021/09/15 00:13:46;;;;;;;17.07;11.70;;;;;;;13.02;100.00;100762.63;5045495;28;20222;-73
2021/09/15 00:16:13;;;;;;;15.37;11.93;;;;;;;12.99;100.00;100757.50;5045025;28;20216;-72
2021/09/15 00:18:39;;;;;;;14.33;11.10;;;;;;;12.98;100.00;100766.22;5044982;28;20720;-72
2021/09/15 00:21:07;;;;;;;12.97;11.30;;;;;;;12.97;100.00;100757.53;5045328;28;20297;-73
2021/09/15 00:23:33;;;;;;;17.57;12.80;;;;;;;12.98;100.00;100763.63;5041357;28;20227;-72
2021/09/15 00:26:00;;;;;;;14.57;12.23;;;;;;;12.91;100.00;100760.38;5046551;28;20654;-72
2021/09/15 00:28:26;;;;;;;16.10;12.23;;;;;;;12.88;100.00;100757.84;5039216;28;20318;-73
2021/09/15 00:30:53;;;;;;;15.63;12.77;;;;;;;12.87;100.00;100758.75;5055011;28;20692;-72
2021/09/15 00:33:20;;;;;;;15.97;12.07;;;;;;;12.85;100.00;100763.19;5039055;28;20830;-72
2021/09/15 00:35:47;;;;;;;14.83;11.60;;;;;;;12.93;100.00;100760.28;5048168;28;20239;-72
2021/09/15 00:38:15;;;;;;;17.40;12.57;;;;;;;12.91;100.00;100754.25;5040022;28;20224;-73
2021/09/15 00:40:41;;;;;;;18.33;12.83;;;;;;;12.86;100.00;100754.44;5028825;28;20205;-73
2021/09/15 00:43:08;;;;;;;18.10;12.53;;;;;;;12.84;100.00;100748.38;5041402;28;20225;-73
2021/09/15 00:45:34;;;;;;;18.23;14.20;;;;;;;12.76;100.00;100743.41;5022135;28;20227;-72
2021/09/15 00:48:01;;;;;;;17.07;12.73;;;;;;;12.75;100.00;100748.69;5044370;28;20296;-72
2021/09/15 00:50:28;;;;;;;17.93;13.07;;;;;;;12.75;100.00;100748.69;5020224;28;20218;-72
2021/09/15 00:52:55;;;;;;;17.53;13.97;;;;;;;12.71;100.00;100747.94;5043952;28;20210;-72
2021/09/15 00:55:24;;;;;;;18.90;13.57;;;;;;;12.67;100.00;100746.34;5017735;28;20258;-72
2021/09/15 00:57:52;;;;;;;18.63;13.00;;;;;;;12.68;100.00;100737.56;5052394;28;20202;-73
2021/09/15 01:00:19;;;;;;;18.97;13.43;;;;;;;12.72;100.00;100731.34;5042436;28;20201;-72
2021/09/15 01:02:47;;;;;;;18.70;14.17;;;;;;;12.67;100.00;100728.03;5051677;28;20283;-72
2021/09/15 01:05:14;;;;;;;16.97;13.27;;;;;;;12.63;100.00;100729.03;5041954;28;20255;-73
2021/09/15 01:07:45;;;;;;;19.10;14.67;;;;;;;12.65;100.00;100728.06;5020579;28;20292;-72
2021/09/15 01:10:13;;;;;;;17.87;13.73;;;;;;;12.63;100.00;100729.91;5026154;28;20217;-73
2021/09/15 01:12:54;;;;;;;18.53;14.40;;;;;;;12.65;100.00;100727.22;5027290;28;20197;-73
2021/09/15 01:15:41;;;;;;;18.77;13.37;;;;;;;12.65;100.00;100719.38;5028243;28;20610;-72
2021/09/15 01:18:27;;;;;;;20.17;15.10;;;;;;;12.63;100.00;100719.44;5032419;28;20215;-73
2021/09/15 01:21:14;;;;;;;20.03;15.17;;;;;;;12.63;100.00;100722.03;5041591;28;20242;-72
2021/09/15 01:23:59;;;;;;;21.57;14.73;;;;;;;12.66;100.00;100719.34;5039645;28;20235;-73
2021/09/15 01:26:44;;;;;;;21.40;15.83;;;;;;;12.71;100.00;100721.78;5043408;28;20269;-72
2021/09/15 01:29:35;;;;;;;23.13;16.60;;;;;;;12.74;100.00;100729.53;5042999;28;20199;-73
2021/09/15 01:32:12;;;;;;;20.70;15.33;;;;;;;12.66;100.00;100735.03;5024805;28;20259;-73
2021/09/15 01:34:41;;;;;;;19.20;15.00;;;;;;;12.67;100.00;100730.66;5018871;28;20621;-73
2021/09/15 01:37:14;;;;;;;19.20;15.23;;;;;;;12.68;100.00;100730.59;5021949;28;20204;-73
2021/09/15 01:39:54;;;;;;;19.33;14.57;;;;;;;12.70;100.00;100733.16;5036195;28;20236;-73
2021/09/15 01:42:21;;;;;;;22.70;14.43;;;;;;;12.65;100.00;100735.94;5022158;28;20203;-72
2021/09/15 01:44:49;;;;;;;20.10;14.93;;;;;;;12.67;100.00;100731.50;5029797;28;21609;-73
2021/09/15 01:47:18;;;;;;;21.70;14.30;;;;;;;12.69;100.00;100724.44;5025981;28;20993;-73
2021/09/15 01:49:46;;;;;;;18.87;14.03;;;;;;;12.57;100.00;100727.47;5024580;28;20228;-72
2021/09/15 01:52:16;;;;;;;17.90;13.97;;;;;;;12.51;100.00;100725.06;5028634;28;20249;-73
2021/09/15 01:54:43;;;;;;;16.83;13.60;;;;;;;12.49;100.00;100727.72;5040039;28;20314;-73
2021/09/15 01:57:09;;;;;;;16.20;13.00;;;;;;;12.44;100.00;100732.25;5043511;28;20224;-72
2021/09/15 02:00:11;;;;;;;18.17;13.70;;;;;;;12.42;100.00;100734.06;5041609;28;20216;-73
2021/09/15 02:03:05;;;;;;;21.33;13.53;;;;;;;12.44;100.00;100734.00;5022580;28;21457;-73
2021/09/15 02:05:37;;;;;;;18.80;14.27;;;;;;;12.47;100.00;100723.44;5027479;28;20585;-72
2021/09/15 02:08:31;;;;;;;19.47;13.80;;;;;;;12.47;100.00;100724.31;5041182;28;20201;-73
2021/09/15 02:11:12;;;;;;;18.80;13.27;;;;;;;12.37;100.00;100720.28;5024071;28;20198;-73
2021/09/15 02:13:39;;;;;;;17.17;13.27;;;;;;;12.36;100.00;100726.41;5023889;28;20229;-73
2021/09/15 02:16:05;;;;;;;18.23;13.53;;;;;;;12.36;100.00;100715.94;5029516;28;20207;-73
2021/09/15 02:18:32;;;;;;;18.20;13.20;;;;;;;12.32;100.00;100720.41;5027247;28;20205;-73
2021/09/15 02:21:16;;;;;;;18.07;13.03;;;;;;;12.27;100.00;100724.94;5025225;28;20202;-73
2021/09/15 02:24:07;;;;;;;16.53;12.87;;;;;;;12.32;100.00;100722.19;5016869;28;20327;-73
2021/09/15 02:26:50;;;;;;;17.97;13.63;;;;;;;12.32;100.00;100711.72;5022990;28;20215;-73
2021/09/15 02:29:17;;;;;;;19.97;13.67;;;;;;;12.26;100.00;100704.94;5045377;28;20202;-72
2021/09/15 02:32:01;;;;;;;16.87;14.20;;;;;;;12.27;100.00;100697.94;5027948;28;20303;-73
2021/09/15 02:34:42;;;;;;;16.07;12.60;;;;;;;12.22;100.00;100700.69;5027447;28;20290;-73
2021/09/15 02:37:37;;;;;;;18.40;13.53;;;;;;;12.23;100.00;100698.94;5032194;28;20211;-73
2021/09/15 02:40:22;;;;;;;17.50;13.57;;;;;;;12.18;100.00;100696.47;5043537;28;20231;-73
2021/09/15 02:43:15;;;;;;;21.90;15.07;;;;;;;12.19;100.00;100689.47;5040057;28;20343;-73
2021/09/15 02:45:58;;;;;;;17.73;14.20;;;;;;;12.12;100.00;100687.06;5048906;28;20203;-73
2021/09/15 02:48:34;;;;;;;18.67;13.73;;;;;;;12.11;100.00;100687.13;5037103;28;20217;-73
2021/09/15 02:51:17;;;;;;;22.80;15.17;;;;;;;12.12;100.00;100676.63;5032453;28;20198;-73
2021/09/15 02:53:57;;;;;;;23.77;15.43;;;;;;;12.07;100.00;100677.66;5037269;28;20714;-73
2021/09/15 02:56:38;;;;;;;21.77;15.10;;;;;;;12.08;100.00;100674.13;5045671;28;20604;-73
2021/09/15 02:59:24;;;;;;;20.70;14.53;;;;;;;12.11;100.00;100669.66;5049374;28;20212;-73
2021/09/15 03:02:07;;;;;;;21.53;16.03;;;;;;;12.11;100.00;100674.06;5043301;28;20822;-73
2021/09/15 03:04:46;;;;;;;19.80;15.30;;;;;;;12.10;100.00;100672.31;5033746;28;20312;-73
2021/09/15 03:07:28;;;;;;;20.40;15.07;;;;;;;12.11;100.00;100677.50;5035884;28;20227;-73
2021/09/15 03:09:55;;;;;;;20.03;14.90;;;;;;;12.13;100.00;100669.63;5034830;28;20205;-73
2021/09/15 03:12:23;;;;;;;25.77;17.00;;;;;;;12.16;100.00;100661.69;5052433;28;20232;-73
2021/09/15 03:14:49;;;;;;;23.33;16.77;;;;;;;12.19;100.00;100656.38;5035091;28;20229;-73
2021/09/15 03:17:15;;;;;;;25.60;17.40;;;;;;;12.23;100.00;100652.75;5052066;28;20294;-73
2021/09/15 03:19:42;;;;;;;24.77;17.83;;;;;;;12.30;100.00;100650.78;5033242;28;20198;-73
2021/09/15 03:22:09;;;;;;;25.83;18.40;;;;;;;12.31;100.00;100644.63;5032381;28;20629;-73
2021/09/15 03:24:36;;;;;;;22.77;17.23;;;;;;;12.34;100.00;100648.94;5032996;28;20219;-73
2021/09/15 03:27:04;;;;;;;26.13;17.53;;;;;;;12.32;100.00;100652.44;5026118;28;20852;-73
2021/09/15 03:29:31;;;;;;;23.77;17.27;;;;;;;12.29;100.00;100655.19;5032364;28;20230;-73
2021/09/15 03:31:58;;;;;;;20.93;16.33;;;;;;;12.36;100.00;100653.19;5027133;28;20230;-73
2021/09/15 03:34:25;;;;;;;22.80;16.00;;;;;;;12.44;100.00;100652.97;5031819;28;20301;-73
2021/09/15 03:36:52;;;;;;;22.10;15.20;;;;;;;12.38;100.00;100648.75;5032660;28;20225;-73
2021/09/15 03:39:20;;;;;;;23.60;16.67;;;;;;;12.30;100.00;100649.03;5058527;28;20239;-73
2021/09/15 03:41:47;;;;;;;21.70;15.37;;;;;;;12.37;100.00;100641.00;5029408;28;20230;-73
2021/09/15 03:44:14;;;;;;;18.57;14.23;;;;;;;12.40;100.00;100649.59;5032097;28;20235;-73
2021/09/15 03:46:43;;;;;;;22.77;14.93;;;;;;;12.39;100.00;100641.78;5022913;28;20222;-73
2021/09/15 03:49:09;;;;;;;18.70;14.47;;;;;;;12.37;100.00;100639.22;5053563;28;20213;-73
2021/09/15 03:51:37;;;;;;;20.40;15.27;;;;;;;12.38;100.00;100640.06;5034423;28;20197;-73
2021/09/15 03:54:04;;;;;;;23.30;16.33;;;;;;;12.36;100.00;100642.72;5035242;28;20229;-73
2021/09/15 03:56:31;;;;;;;21.13;15.83;;;;;;;12.36;100.00;100650.56;5037637;28;20201;-73
2021/09/15 03:58:58;;;;;;;20.40;14.40;;;;;;;12.36;100.00;100647.13;5049364;28;20302;-73
2021/09/15 04:01:24;;;;;;;22.23;15.50;;;;;;;12.37;100.00;100643.59;5041583;28;20205;-73
2021/09/15 04:03:52;;;;;;;20.63;15.87;;;;;;;12.36;100.00;100639.28;5025623;28;20223;-73
2021/09/15 04:06:19;;;;;;;21.10;15.57;;;;;;;12.32;100.00;100639.38;5028954;28;20402;-73
2021/09/15 04:08:46;;;;;;;20.93;15.57;;;;;;;12.39;100.00;100637.41;5024726;28;20227;-73
2021/09/15 04:11:13;;;;;;;19.63;14.07;;;;;;;12.41;100.00;100642.59;5027035;28;20200;-73
2021/09/15 04:13:40;;;;;;;20.43;15.97;;;;;;;12.42;100.00;100647.78;5026902;28;20286;-73
2021/09/15 04:16:07;;;;;;;24.10;16.80;;;;;;;12.38;100.00;100635.69;5031212;28;20237;-73
2021/09/15 04:18:35;;;;;;;21.50;15.90;;;;;;;12.40;100.00;100638.25;5028724;28;20323;-73
2021/09/15 04:21:03;;;;;;;22.83;15.33;;;;;;;12.40;100.00;100633.03;5026183;28;20292;-74
2021/09/15 04:23:34;;;;;;;22.47;15.87;;;;;;;12.40;100.00;100633.03;5035093;28;20728;-73
2021/09/15 04:31:31;;;;;;;20.03;15.50;;;;;;;12.44;100.00;100635.50;5023999;28;20473;-73
2021/09/15 04:33:59;;;;;;;20.97;16.60;;;;;;;12.49;100.00;100625.72;5025594;28;20234;-73
2021/09/15 04:36:32;;;;;;;19.37;15.50;;;;;;;12.53;100.00;100626.47;5015378;28;20207;-73
2021/09/15 04:39:02;;;;;;;20.53;14.83;;;;;;;12.53;100.00;100631.72;5019374;28;20213;-73
2021/09/15 04:41:28;;;;;;;18.77;14.13;;;;;;;12.53;100.00;100631.72;5031676;28;20214;-73
2021/09/15 04:43:55;;;;;;;16.30;14.03;;;;;;;12.53;100.00;100633.47;5023563;28;20303;-73
2021/09/15 04:46:22;;;;;;;20.17;14.80;;;;;;;12.54;100.00;100629.94;5046962;28;20193;-73
2021/09/15 04:48:49;;;;;;;20.77;14.97;;;;;;;12.52;100.00;100630.00;5040796;28;20319;-73
2021/09/15 04:51:17;;;;;;;17.10;13.60;;;;;;;12.52;100.00;100635.22;5038011;28;20205;-73
2021/09/15 04:53:47;;;;;;;20.20;15.47;;;;;;;12.52;100.00;100640.44;5027162;28;20249;-73
2021/09/15 04:56:14;;;;;;;18.77;14.57;;;;;;;12.60;100.00;100640.22;5058098;28;20203;-73
2021/09/15 04:58:41;;;;;;;20.57;15.27;;;;;;;12.58;100.00;100634.19;5030985;28;20242;-73
2021/09/15 05:01:07;;;;;;;22.23;15.47;;;;;;;12.56;100.00;100630.75;5049067;28;20202;-73
2021/09/15 05:03:34;;;;;;;20.27;15.53;;;;;;;12.60;100.00;100629.75;5039128;28;20261;-73
2021/09/15 05:06:01;;;;;;;20.37;15.50;;;;;;;12.64;100.00;100636.56;5040178;28;20565;-73
2021/09/15 05:08:27;;;;;;;21.03;15.60;;;;;;;12.67;100.00;100629.47;5049126;28;20233;-73
2021/09/15 05:10:55;;;;;;;20.80;15.83;;;;;;;12.71;100.00;100622.38;5028632;28;20565;-73
2021/09/15 05:13:24;;;;;;;21.03;16.23;;;;;;;12.76;100.00;100622.22;5029986;28;20198;-73
2021/09/15 05:15:51;;;;;;;21.87;15.90;;;;;;;12.81;100.00;100620.31;5025167;28;20205;-73
2021/09/15 05:18:18;;;;;;;19.53;15.33;;;;;;;12.86;100.00;100615.75;5027670;28;20703;-73
2021/09/15 05:20:44;;;;;;;20.13;16.33;;;;;;;12.92;100.00;100612.91;5028358;28;20208;-73
2021/09/15 05:23:10;;;;;;;21.27;15.77;;;;;;;13.02;100.00;100619.53;5045159;28;20758;-73
2021/09/15 05:25:37;;;;;;;20.40;15.90;;;;;;;13.07;100.00;100611.50;5022576;28;20206;-73
2021/09/15 05:28:06;;;;;;;19.83;15.23;;;;;;;13.18;100.00;100611.13;5014280;28;20227;-73
2021/09/15 05:30:36;;;;;;;19.27;15.03;;;;;;;13.24;100.00;100610.88;5033272;28;20215;-73
2021/09/15 05:33:04;;;;;;;19.63;14.97;;;;;;;13.33;100.00;100612.31;5028419;28;20214;-72
2021/09/15 05:35:30;;;;;;;18.47;15.07;;;;;;;13.42;100.00;100610.22;5032938;23;20285;-74
2021/09/15 05:38:02;;;;;;;18.20;14.73;;;;;;;13.52;100.00;100610.72;5020270;28;20215;-74
2021/09/15 05:40:30;;;;;;;17.30;13.17;;;;;;;13.63;100.00;100607.66;5023964;28;20208;-74
2021/09/15 05:42:56;;;;;;;18.03;13.47;;;;;;;13.70;100.00;100611.78;5029349;28;20287;-74
2021/09/15 05:45:26;;;;;;;18.03;13.37;;;;;;;13.78;100.00;100606.22;5038836;28;20650;-74
2021/09/15 05:47:52;;;;;;;14.07;12.10;;;;;;;13.86;100.00;100603.28;5018838;28;20621;-74
2021/09/15 05:50:19;;;;;;;19.07;16.60;;;;;;;13.94;100.00;100601.22;5022363;28;20199;-74
2021/09/15 05:52:46;;;;;;;14.97;12.57;;;;;;;14.04;100.00;100602.56;5019544;28;20298;-74
2021/09/15 05:55:14;;;;;;;15.00;12.30;;;;;;;14.12;100.00;100600.44;5025401;28;20215;-74
2021/09/15 05:57:40;;;;;;;14.53;11.57;;;;;;;14.18;100.00;100605.47;5020397;28;20684;-74
2021/09/15 06:00:08;;;;;;;15.53;11.40;;;;;;;14.27;100.00;100608.63;5023863;28;20800;-74
2021/09/15 06:02:48;;;;;;;12.30;10.27;;;;;;;14.34;100.00;100607.44;5034447;28;20242;-74
2021/09/15 06:05:37;;;;;;;12.33;10.30;;;;;;;14.41;100.00;100598.41;5007102;28;20303;-74
2021/09/15 06:08:04;;;;;;;12.53;9.97;;;;;;;14.50;100.00;100602.41;5041029;28;20952;-74
2021/09/15 06:10:31;;;;;;;14.60;11.17;;;;;;;14.59;100.00;100604.66;5044504;28;20693;-74
2021/09/15 06:12:57;;;;;;;11.90;9.63;;;;;;;14.65;100.00;100603.53;5043145;28;20239;-74
2021/09/15 06:15:24;;;;;;;12.77;10.67;;;;;;;14.74;100.00;100600.53;5026384;28;20223;-74
2021/09/15 06:17:53;;;;;;;13.07;10.20;;;;;;;14.80;100.00;100602.03;5025069;28;20755;-74
2021/09/15 06:20:24;;;;;;;11.23;9.77;;;;;;;14.88;100.00;100602.53;5025267;28;20296;-74
2021/09/15 06:23:17;;;;;;;12.17;9.90;;;;;;;14.99;100.00;100600.28;5039332;28;20211;-74
2021/09/15 06:26:00;;;;;;;11.23;9.77;;;;;;;15.06;100.00;100598.25;5025851;28;20232;-74
2021/09/15 06:28:29;;;;;;;10.77;9.53;;;;;;;15.13;100.00;100604.91;5027033;28;20221;-74
2021/09/15 06:30:57;;;;;;;11.30;9.87;;;;;;;15.20;100.00;100608.97;5022414;28;20204;-74
2021/09/15 06:33:25;;;;;;;10.33;9.23;;;;;;;15.30;100.00;100607.63;5041572;28;20203;-74
2021/09/15 06:35:52;;;;;;;9.43;8.43;;;;;;;15.42;100.00;100611.44;5041869;28;20769;-74
2021/09/15 06:38:19;;;;;;;13.03;9.77;;;;;;;15.54;100.00;100612.66;5040815;28;20202;-74
2021/09/15 06:40:46;;;;;;;11.93;8.97;;;;;;;15.63;100.00;100608.72;5025559;28;20616;-74
2021/09/15 06:43:12;;;;;;;12.23;8.97;;;;;;;15.78;100.00;100607.19;5042446;28;20231;-74
2021/09/15 06:45:38;;;;;;;10.90;8.87;;;;;;;15.90;100.00;100615.34;5042385;28;20697;-74
2021/09/15 06:48:05;;;;;;;12.57;9.17;;;;;;;16.08;100.00;100605.69;5038128;28;21529;-74
2021/09/15 06:50:33;;;;;;;11.67;8.60;;;;;;;16.16;100.00;100602.66;5047683;28;20211;-74
2021/09/15 06:53:00;;;;;;;9.03;8.13;;;;;;;16.28;100.00;100603.84;5041629;28;20207;-74
2021/09/15 06:55:26;;;;;;;9.57;8.57;;;;;;;16.34;100.00;100606.19;5043640;28;20249;-74
2021/09/15 06:57:53;;;;;;;9.87;8.47;;;;;;;16.41;100.00;100607.56;5038752;28;20261;-74
2021/09/15 07:00:21;;;;;;;10.27;7.43;;;;;;;16.45;100.00;100600.38;5046374;28;20277;-74
2021/09/15 07:02:48;;;;;;;9.47;7.97;;;;;;;16.52;100.00;100600.91;5040092;28;20236;-74
2021/09/15 07:05:15;;;;;;;10.73;7.97;;;;;;;16.58;100.00;100606.69;5039425;28;20417;-74
2021/09/15 07:07:43;;;;;;;11.27;7.67;;;;;;;16.67;99.83;100602.72;5040024;28;20215;-74
2021/09/15 07:10:10;;;;;;;9.17;7.57;;;;;;;16.77;100.00;100608.38;5045564;28;20207;-74
2021/09/15 07:12:38;;;;;;;8.60;7.60;;;;;;;16.86;100.00;100597.38;5044947;28;20215;-74
2021/09/15 07:15:05;;;;;;;9.40;7.83;;;;;;;16.95;100.00;100607.44;5036497;28;21277;-74
2021/09/15 07:17:32;;;;;;;9.50;7.77;;;;;;;17.02;100.00;100603.53;5042367;28;20203;-74
2021/09/15 07:19:58;;;;;;;9.00;8.07;;;;;;;17.09;100.00;100598.78;5039850;28;20254;-74
2021/09/15 07:22:24;;;;;;;10.87;7.90;;;;;;;17.15;100.00;100595.84;5037989;28;20217;-74
2021/09/15 07:24:52;;;;;;;13.73;7.80;;;;;;;17.25;100.00;100595.34;5038077;28;20231;-74
2021/09/15 07:27:18;;;;;;;8.13;7.33;;;;;;;17.30;99.33;100599.41;5038888;28;20211;-74
2021/09/15 07:29:45;;;;;;;9.37;7.90;;;;;;;17.37;98.55;100594.66;5037290;28;20221;-74
2021/09/15 07:32:11;;;;;;;7.73;6.93;;;;;;;17.43;98.37;100596.97;5038053;28;20207;-74
2021/09/15 07:34:39;;;;;;;8.93;8.03;;;;;;;17.53;97.97;100589.41;5040054;28;20234;-74
2021/09/15 07:37:06;;;;;;;9.17;7.33;;;;;;;17.65;97.37;100593.13;5043577;28;20215;-74
2021/09/15 07:39:32;;;;;;;7.13;6.40;;;;;;;17.77;97.20;100593.28;5040657;28;20196;-74
2021/09/15 07:42:00;;;;;;;7.93;6.87;;;;;;;17.93;96.90;100593.28;5040533;28;20207;-74
2021/09/15 07:44:26;;;;;;;7.43;6.70;;;;;;;18.05;95.50;100597.03;5042425;28;20235;-74
2021/09/15 07:46:53;;;;;;;8.17;7.27;;;;;;;18.19;94.46;100600.63;5037133;28;20765;-74
2021/09/15 07:49:20;;;;;;;10.10;7.17;;;;;;;18.30;92.71;100600.88;5041717;28;20307;-74
2021/09/15 07:51:47;;;;;;;7.87;7.07;;;;;;;18.42;91.95;100608.06;5038131;28;20203;-74
2021/09/15 07:54:13;;;;;;;8.00;6.70;;;;;;;18.53;93.29;100605.63;5043534;28;20222;-75
2021/09/15 07:56:40;;;;;;;7.60;6.80;;;;;;;18.65;92.53;100598.75;5037892;28;20203;-75
2021/09/15 07:59:07;;;;;;;7.53;6.60;;;;;;;18.78;92.07;100598.84;5042042;28;20407;-75
2021/09/15 08:01:34;;;;;;;7.50;6.70;;;;;;;18.89;90.97;100601.75;5037402;28;20246;-75
2021/09/15 08:04:00;;;;;;;8.87;6.47;;;;;;;19.01;88.85;100594.84;5047333;28;20635;-75
2021/09/15 08:06:27;;;;;;;6.70;6.00;;;;;;;19.13;89.33;100593.22;5038124;28;20213;-75
2021/09/15 08:08:53;;;;;;;7.43;5.93;;;;;;;19.32;90.58;100586.81;5042371;28;20278;-75
2021/09/15 08:11:20;;;;;;;7.77;6.13;;;;;;;19.41;89.35;100591.50;5038960;28;20206;-75
2021/09/15 08:13:46;;;;;;;9.40;6.00;;;;;;;19.53;88.26;100592.50;5042880;28;20553;-75
2021/09/15 08:16:14;;;;;;;6.57;5.80;;;;;;;19.61;87.80;100595.50;5039267;28;20203;-75
2021/09/15 08:18:40;;;;;;;7.20;6.30;;;;;;;19.70;87.78;100594.94;5041398;28;20290;-75
2021/09/15 08:21:07;;;;;;;6.87;6.17;;;;;;;19.80;87.55;100593.38;5042730;28;20214;-74
2021/09/15 08:23:34;;;;;;;9.37;5.90;;;;;;;19.97;86.39;100597.56;5037573;28;20294;-74
2021/09/15 08:26:00;;;;;;;8.27;6.00;;;;;;;20.11;85.86;100595.81;5040823;28;20223;-75
2021/09/15 08:28:27;;;;;;;7.43;6.13;;;;;;;20.24;85.85;100596.69;5023660;28;20227;-74
2021/09/15 08:30:53;;;;;;;6.30;5.70;;;;;;;20.35;83.58;100598.59;5038955;28;20213;-74
2021/09/15 08:33:21;;;;;;;6.10;5.50;;;;;;;20.47;83.49;100597.78;5038112;28;20298;-74
2021/09/15 08:35:47;;;;;;;7.33;5.80;;;;;;;20.64;83.93;100587.88;5039629;28;20223;-75
2021/09/15 08:38:14;;;;;;;5.80;5.20;;;;;;;20.73;82.83;100590.72;5033912;28;20207;-74
2021/09/15 08:40:41;;;;;;;6.63;5.37;;;;;;;20.81;81.99;100587.56;5038064;28;20207;-74
2021/09/15 08:43:07;;;;;;;6.83;5.47;;;;;;;20.95;81.84;100587.44;5036649;28;20215;-75
2021/09/15 08:45:34;;;;;;;5.93;5.33;;;;;;;21.05;80.69;100586.78;5039894;28;20226;-75
2021/09/15 08:48:02;;;;;;;6.27;5.33;;;;;;;21.06;80.07;100591.97;5038442;28;20214;-74
2021/09/15 08:50:30;;;;;;;5.70;5.10;;;;;;;21.07;80.46;100582.22;5032993;28;20598;-75
2021/09/15 08:52:57;;;;;;;8.13;6.10;;;;;;;21.16;78.98;100578.94;5040622;28;20213;-74
2021/09/15 08:55:24;;;;;;;6.20;5.57;;;;;;;21.22;79.32;100580.28;5037737;28;20303;-74
2021/09/15 08:57:50;;;;;;;11.73;5.50;;;;;;;21.25;78.81;100578.25;5038797;28;20202;-75
2021/09/15 09:00:17;;;;;;;6.43;5.73;;;;;;;21.32;78.20;100582.16;5038232;28;20242;-74
2021/09/15 09:02:45;;;;;;;5.47;4.90;;;;;;;21.40;77.62;100586.91;5041833;28;20210;-74
2021/09/15 09:05:12;;;;;;;6.97;5.03;;;;;;;21.45;78.65;100584.75;5035990;28;20231;-74
2021/09/15 09:07:40;;;;;;;6.50;5.17;;;;;;;21.59;76.31;100586.44;5040831;28;20221;-74
2021/09/15 09:10:09;;;;;;;5.87;5.00;;;;;;;21.74;77.19;100588.00;5034266;28;20223;-74
2021/09/15 09:12:38;;;;;;;7.03;4.90;;;;;;;21.88;77.06;100591.41;5020180;28;20203;-75
2021/09/15 09:15:17;;;;;;;5.30;4.80;;;;;;;22.02;75.24;100588.59;5035042;28;21869;-75
2021/09/15 09:17:44;;;;;;;5.07;4.60;;;;;;;22.21;75.65;100581.88;5036772;28;20765;-74
2021/09/15 09:20:21;;;;;;;6.65;5.18;;;;;;;22.38;74.83;100591.28;5023198;28;20192;-75
2021/09/15 09:23:17;;;;;;;5.18;4.68;;;;;;;22.54;74.10;100586.47;5036927;28;20231;-75
2021/09/15 09:25:45;;;;;;;5.55;4.75;;;;;;;22.66;73.92;100582.84;5010607;28;20223;-75
2021/09/15 09:28:20;;;;;;;6.88;5.32;;;;;;;22.75;73.00;100580.44;5035166;28;20203;-74
2021/09/15 09:30:48;;;;;;;6.10;4.80;;;;;;;22.85;72.00;100576.13;5024878;28;20203;-75
2021/09/15 09:33:15;;;;;;;5.15;4.65;;;;;;;22.98;73.59;100565.34;5033739;28;20254;-75
2021/09/15 09:35:43;;;;;;;5.65;5.03;;;;;;;23.07;73.54;100572.63;5034808;28;20660;-74
2021/09/15 09:38:23;;;;;;;6.32;4.78;;;;;;;23.14;71.90;100578.31;5039250;28;20207;-75
2021/09/15 09:40:55;;;;;;;6.05;5.03;;;;;;;23.19;71.94;100568.97;5019681;28;20195;-74
2021/09/15 09:43:21;;;;;;;5.65;4.90;;;;;;;23.18;71.48;100564.66;5029434;28;20214;-74
2021/09/15 09:45:49;;;;;;;4.90;4.40;;;;;;;23.10;70.20;100569.72;5035265;28;20229;-74
2021/09/15 09:48:28;;;;;;;6.63;5.15;;;;;;;23.16;69.07;100574.53;5041555;28;20738;-74
2021/09/15 09:50:55;;;;;;;5.47;4.88;;;;;;;23.23;72.61;100564.25;5034622;28;20309;-74
2021/09/15 09:53:23;;;;;;;5.97;5.00;;;;;;;23.20;73.21;100559.19;5041043;28;20206;-74
2021/09/15 09:55:49;;;;;;;6.78;5.22;;;;;;;23.17;71.80;100559.44;5035042;28;20297;-74
2021/09/15 09:58:22;;;;;;;6.75;5.00;;;;;;;23.20;72.70;100568.03;5040485;28;20597;-74
2021/09/15 10:00:49;;;;;;;5.32;4.57;;;;;;;23.19;72.98;100565.47;5034029;28;20323;-74
2021/09/15 10:03:15;;;;;;;6.57;4.95;;;;;;;23.20;73.15;100562.72;5039142;28;20871;-74
2021/09/15 10:05:43;;;;;;;5.38;4.88;;;;;;;23.19;71.98;100558.34;5036922;28;20231;-74
2021/09/15 10:08:10;;;;;;;6.65;4.90;;;;;;;23.34;72.80;100555.41;5037405;28;20230;-74
2021/09/15 10:10:40;;;;;;;5.75;4.63;;;;;;;23.38;71.71;100562.19;5039198;28;20227;-74
2021/09/15 10:13:09;;;;;;;5.20;4.70;;;;;;;23.48;71.34;100554.28;5038656;28;20212;-74
2021/09/15 10:15:44;;;;;;;6.32;5.55;;;;;;;23.45;69.94;100555.41;5040528;28;20230;-74
2021/09/15 10:18:12;;;;;;;5.22;4.72;;;;;;;23.53;69.93;100547.63;5034769;28;20791;-74
2021/09/15 10:20:39;;;;;;;6.05;4.85;;;;;;;23.57;69.64;100541.09;5035910;28;20196;-74
2021/09/15 10:23:36;;;;;;;6.72;4.60;;;;;;;23.60;68.62;100540.81;5033645;28;20739;-74
2021/09/15 10:26:33;;;;;;;5.72;4.90;;;;;;;23.68;71.03;100532.22;5036974;28;20230;-74
2021/09/15 10:29:20;;;;;;;5.93;4.70;;;;;;;23.68;68.75;100542.88;5035762;28;20219;-74
2021/09/15 10:31:57;;;;;;;5.20;4.70;;;;;;;23.63;69.79;100542.41;5036108;28;20211;-74
2021/09/15 10:34:50;;;;;;;5.25;4.75;;;;;;;23.61;70.48;100544.34;5039678;28;20380;-74
2021/09/15 10:37:50;;;;;;;4.82;4.30;;;;;;;23.69;68.61;100547.19;5035673;28;20803;-74
2021/09/15 10:40:32;;;;;;;6.68;5.00;;;;;;;23.81;70.00;100532.91;5031205;28;20661;-74
2021/09/15 10:43:00;;;;;;;5.45;4.50;;;;;;;23.95;68.84;100542.41;5039176;28;20203;-74
2021/09/15 10:45:30;;;;;;;5.15;4.50;;;;;;;24.12;68.32;100541.00;5034185;28;20231;-74
2021/09/15 10:47:59;;;;;;;8.35;4.95;;;;;;;24.15;67.60;100535.41;5020881;28;20214;-74
2021/09/15 10:50:52;;;;;;;6.55;4.63;;;;;;;24.13;66.51;100540.03;5031641;28;20233;-74
2021/09/15 10:53:22;;;;;;;5.15;4.57;;;;;;;24.16;66.32;100537.06;5042096;28;20206;-74
2021/09/15 10:55:51;;;;;;;5.38;4.80;;;;;;;24.23;67.87;100529.41;5040860;28;20779;-74
2021/09/15 10:58:21;;;;;;;6.60;5.20;;;;;;;24.31;65.72;100534.06;5043487;28;20552;-74
2021/09/15 11:00:48;;;;;;;5.28;4.55;;;;;;;24.52;66.10;100528.72;5031265;28;20278;-74
2021/09/15 11:03:28;;;;;;;5.07;4.60;;;;;;;24.67;65.39;100524.75;5041147;28;20199;-74
2021/09/15 11:05:54;;;;;;;5.18;4.65;;;;;;;24.71;63.32;100523.53;5029828;28;20222;-74
2021/09/15 11:08:36;;;;;;;5.03;4.53;;;;;;;24.67;63.49;100524.75;5040037;28;20199;-74
2021/09/15 11:11:04;;;;;;;5.47;4.68;;;;;;;24.63;63.32;100527.84;5040072;28;20215;-74
2021/09/15 11:13:52;;;;;;;5.45;4.47;;;;;;;24.68;63.85;100526.47;5037981;28;20306;-74
2021/09/15 11:16:29;;;;;;;6.20;4.50;;;;;;;24.68;64.88;100521.13;5047562;28;20957;-74
2021/09/15 11:18:57;;;;;;;6.43;4.40;;;;;;;24.73;64.15;100520.72;5040845;28;20191;-74
2021/09/15 11:21:24;;;;;;;6.65;4.70;;;;;;;24.66;64.70;100516.91;5044867;28;20441;-74
2021/09/15 11:23:55;;;;;;;4.90;4.40;;;;;;;24.65;64.32;100513.41;5019856;28;20274;-74
2021/09/15 11:26:35;;;;;;;5.65;4.97;;;;;;;24.67;64.84;100508.78;5036544;28;20203;-74
2021/09/15 11:29:04;;;;;;;4.68;4.28;;;;;;;24.65;64.91;100505.41;5043282;28;20227;-74
2021/09/15 11:31:32;;;;;;;6.43;4.80;;;;;;;24.55;64.60;100499.19;5037875;28;20203;-74
2021/09/15 11:34:05;;;;;;;4.88;4.38;;;;;;;24.51;66.46;100498.56;5042826;28;20217;-74